Stations météo

réclame
Mon MeteoGroup
Tarfala, Suède (2029): Température de l'air & dewpoint: 12.02.2019 19:00:00 - 18.02.2019 19:00:00 (CET)Tarfala, Suède (2029): Vitesse du vent & gusts: 12.02.2019 19:00:00 - 18.02.2019 19:00:00 (CET)Tarfala, Suède (2029): Direction du vent: 12.02.2019 19:00:00 - 18.02.2019 19:00:00 (CET)
Date & Time tt [°C] td [°C] ff [km/h] ff [knt] fx [km/h] fx [knt] dd
18.02.2019 19:00:00 - - - - - - -
18.02.2019 18:00:00 - - - - - - -
18.02.2019 17:00:00 - - - - - - -
18.02.2019 16:00:00 - - - - - - -
18.02.2019 15:00:00 - - - - - - -
18.02.2019 14:00:00 - - - - - - -
18.02.2019 13:00:00 - - - - - - -
18.02.2019 12:00:00 - - - - - - -
18.02.2019 11:00:00 - - - - - - -
18.02.2019 10:00:00 - - - - - - -
18.02.2019 09:00:00 - - - - - - -
18.02.2019 08:00:00 - - - - - - -
18.02.2019 07:00:00 - - - - - - -
18.02.2019 06:00:00 - - - - - - -
18.02.2019 05:00:00 - - - - - - -
18.02.2019 04:00:00 - - - - - - -
18.02.2019 03:00:00 - - - - - - -
18.02.2019 02:00:00 - - - - - - -
18.02.2019 01:00:00 - - - - - - -
18.02.2019 00:00:00 - - - - - - -
17.02.2019 23:00:00 - - - - - - -
17.02.2019 22:00:00 - - - - - - -
17.02.2019 21:00:00 - - - - - - -
17.02.2019 20:00:00 - - - - - - -
17.02.2019 19:00:00 - - - - - - -
17.02.2019 18:00:00 - - - - - - -
17.02.2019 17:00:00 - - - - - - -
17.02.2019 16:00:00 - - - - - - -
17.02.2019 15:00:00 - - - - - - -
17.02.2019 14:00:00 - - - - - - -
17.02.2019 13:00:00 - - - - - - -
17.02.2019 12:00:00 - - - - - - -
17.02.2019 11:00:00 - - - - - - -
17.02.2019 10:00:00 - - - - - - -
17.02.2019 09:00:00 - - - - - - -
17.02.2019 08:00:00 - - - - - - -
17.02.2019 07:00:00 - - - - - - -
17.02.2019 06:00:00 -8,3 -14,3 - - - - -
17.02.2019 05:00:00 -8,0 -14,0 - - - - -
17.02.2019 04:00:00 -7,8 -12,7 - - - - -
17.02.2019 03:00:00 -7,9 -11,7 - - - - -
17.02.2019 02:00:00 -7,4 -12,3 - - - - -
17.02.2019 01:00:00 -7,0 -11,5 - - - - -
17.02.2019 00:00:00 -6,5 -11,2 37 20 92 50 W
16.02.2019 23:00:00 -6,2 -10,1 35 19 136 73 W
16.02.2019 22:00:00 -5,6 -9,3 44 24 136 73 WNW
16.02.2019 21:00:00 -6,4 -8,2 77 41 134 72 NW
16.02.2019 20:00:00 -6,1 -7,9 72 39 134 72 WNW
16.02.2019 19:00:00 -5,3 -7,3 56 30 111 60 NW
16.02.2019 18:00:00 -4,8 -7,1 40 21 113 61 NW
16.02.2019 17:00:00 -3,9 -5,7 36 19 119 64 NNW
16.02.2019 16:00:00 -3,0 -4,7 42 23 119 64 N
16.02.2019 15:00:00 -4,2 -5,7 32 18 103 56 ENE
16.02.2019 14:00:00 -5,2 -6,7 55 30 100 54 S
16.02.2019 13:00:00 -4,7 -6,1 53 29 98 53 S
16.02.2019 12:00:00 -4,8 -6,5 38 21 97 52 S
16.02.2019 11:00:00 -5,3 -7,1 42 23 106 58 S
16.02.2019 10:00:00 -5,4 -6,8 54 29 106 58 S
16.02.2019 09:00:00 -4,8 -6,3 49 26 105 57 S
16.02.2019 08:00:00 -4,3 -6,0 52 28 111 60 S
16.02.2019 07:00:00 -3,0 -5,5 38 20 111 60 S
16.02.2019 06:00:00 -0,2 -2,3 40 22 93 50 S
16.02.2019 05:00:00 0,2 -1,9 35 19 92 50 S
16.02.2019 04:00:00 0,2 -2,5 23 12 79 42 S
16.02.2019 03:00:00 0,0 -1,4 23 12 79 42 S
16.02.2019 02:00:00 -0,8 -4,0 24 13 51 27 S
16.02.2019 01:00:00 -5,9 -6,8 3 1 10 5 SSW
16.02.2019 00:00:00 -5,6 -6,6 3 1 10 5 NE
15.02.2019 23:00:00 -5,7 -6,6 4 2 9 5 N
15.02.2019 22:00:00 -6,5 -7,6 6 3 12 7 NW
15.02.2019 21:00:00 -6,7 -7,6 3 2 20 11 S
15.02.2019 20:00:00 -5,9 -6,7 8 5 44 24 SSE
15.02.2019 19:00:00 -4,7 -7,8 14 8 69 37 NNW
15.02.2019 18:00:00 -4,1 -7,9 30 16 82 44 NW
15.02.2019 17:00:00 -4,0 -7,4 37 20 82 44 NNW
15.02.2019 16:00:00 -3,6 -7,6 39 21 78 42 NNW
15.02.2019 15:00:00 -3,6 -7,4 40 22 77 42 NNW
15.02.2019 14:00:00 -3,4 -7,9 33 18 82 45 NW
15.02.2019 13:00:00 -3,2 -8,3 27 15 92 50 NNW
15.02.2019 12:00:00 -3,3 -7,1 39 21 92 50 NW
15.02.2019 11:00:00 - - - - 79 43 -
15.02.2019 10:00:00 - - - - 87 47 -
15.02.2019 09:00:00 - - - - 106 58 -
15.02.2019 08:00:00 - - - - - - -
15.02.2019 07:00:00 - - - - - - -
15.02.2019 06:00:00 - - - - - - -
15.02.2019 05:00:00 - - - - - - -
15.02.2019 04:00:00 - - - - - - -
15.02.2019 03:00:00 - - - - - - -
15.02.2019 02:00:00 -3,6 -4,9 33 18 126 68 N
15.02.2019 01:00:00 -3,7 -5,4 22 12 74 40 NE
15.02.2019 00:00:00 -4,3 -5,4 19 11 95 51 E
14.02.2019 23:00:00 -4,2 -5,2 22 12 100 54 ENE
14.02.2019 22:00:00 -4,4 -5,2 29 16 100 54 NE
14.02.2019 21:00:00 -4,4 -5,2 32 18 98 53 ESE
14.02.2019 20:00:00 -4,2 -5,7 33 18 98 53 SSE
14.02.2019 19:00:00 -3,6 -5,3 48 26 92 50 SSE
14.02.2019 18:00:00 -3,2 -4,6 47 26 114 62 SSE
14.02.2019 17:00:00 -2,6 -4,3 52 28 114 62 S
14.02.2019 16:00:00 -1,9 -3,3 32 17 95 51 SSE
14.02.2019 15:00:00 -1,7 -3,7 40 22 91 49 S
14.02.2019 14:00:00 -1,5 -2,9 41 22 69 37 S
14.02.2019 13:00:00 -1,1 -3,6 39 21 77 42 S
14.02.2019 12:00:00 -1,4 -3,8 31 17 77 42 S
14.02.2019 11:00:00 -0,5 -1,3 29 16 61 33 S
14.02.2019 10:00:00 -6,4 -7,5 6 4 24 13 ESE
14.02.2019 09:00:00 -7,7 -8,8 8 4 13 7 NNW
14.02.2019 08:00:00 -7,7 -8,8 2 1 13 7 ESE
14.02.2019 07:00:00 -7,3 -8,4 3 2 10 5 N
14.02.2019 06:00:00 -7,7 -8,9 7 4 10 5 NNW
14.02.2019 05:00:00 -8,0 -9,3 5 3 10 5 NNW
14.02.2019 04:00:00 -9,1 -10,2 7 4 28 15 N
14.02.2019 03:00:00 -9,0 -10,9 3 2 28 15 NNW
14.02.2019 02:00:00 -9,6 -11,8 6 4 - - NE
14.02.2019 01:00:00 -8,9 -11,3 5 3 46 25 SE
14.02.2019 00:00:00 -8,3 -11,1 18 10 49 26 S
13.02.2019 23:00:00 -6,8 -13,3 26 14 63 34 NW
13.02.2019 22:00:00 -7,4 -12,8 29 16 68 37 NW
13.02.2019 21:00:00 -7,6 -13,0 29 16 69 37 NW
13.02.2019 20:00:00 -8,2 -12,7 34 18 71 38 NW
13.02.2019 19:00:00 -7,4 -11,2 30 16 71 38 NNW
13.02.2019 18:00:00 -9,8 -11,8 16 8 35 19 W
13.02.2019 17:00:00 -11,4 -12,8 3 2 9 5 NW
13.02.2019 16:00:00 -12,1 -13,3 5 3 9 5 SSE
13.02.2019 15:00:00 -9,5 -11,3 5 3 8 4 NNW
13.02.2019 14:00:00 -9,7 -11,2 6 3 7 4 WNW
13.02.2019 13:00:00 -9,3 -11,7 2 1 11 6 W
13.02.2019 12:00:00 -10,0 -12,3 5 3 11 6 NNW
13.02.2019 11:00:00 -11,2 -13,1 5 3 18 10 NW
13.02.2019 10:00:00 -11,1 -13,3 5 3 18 10 E
13.02.2019 09:00:00 -10,9 -13,2 3 2 9 5 ENE
13.02.2019 08:00:00 -11,5 -13,4 5 3 7 4 NW
13.02.2019 07:00:00 -11,0 -13,8 3 2 11 6 NNE
13.02.2019 06:00:00 -11,4 -14,3 0 0 11 6 N
13.02.2019 05:00:00 -11,0 -14,6 4 2 9 5 ENE
13.02.2019 04:00:00 -11,0 -15,6 4 2 13 7 NNE
13.02.2019 03:00:00 -10,9 -16,6 4 2 13 7 ENE
13.02.2019 02:00:00 -11,3 -16,9 3 2 11 6 E
13.02.2019 01:00:00 -13,2 -18,6 2 1 11 6 N
13.02.2019 00:00:00 -12,0 -17,6 8 4 14 8 N
12.02.2019 23:00:00 -12,9 -19,6 7 4 20 11 NNW
12.02.2019 22:00:00 -12,2 -18,4 11 6 34 18 N
12.02.2019 21:00:00 -10,8 -15,9 7 4 59 32 S
12.02.2019 20:00:00 -9,2 -15,1 21 11 88 48 WNW
12.02.2019 19:00:00 -9,3 -12,3 47 26 90 48 WNW

tt = Température de l'air
td = dewpoint
ff = Vitesse du vent
fx = gusts
dd = Direction du vent

stations d'obs. à proximité